sensor_id;sensor_type;location;lat;lon;timestamp;P1;durP1;ratioP1;P2;durP2;ratioP2
8803;SDS011;4438;50.890;4.726;2022-10-16T00:00:44;2.83;;;1.70;;
8803;SDS011;4438;50.890;4.726;2022-10-16T00:03:10;2.20;;;1.80;;
8803;SDS011;4438;50.890;4.726;2022-10-16T00:05:43;2.83;;;1.80;;
8803;SDS011;4438;50.890;4.726;2022-10-16T00:08:12;1.83;;;1.60;;
8803;SDS011;4438;50.890;4.726;2022-10-16T00:10:39;2.53;;;1.80;;
8803;SDS011;4438;50.890;4.726;2022-10-16T00:13:05;1.77;;;1.50;;
8803;SDS011;4438;50.890;4.726;2022-10-16T00:15:37;2.57;;;1.53;;
8803;SDS011;4438;50.890;4.726;2022-10-16T00:18:04;2.20;;;1.60;;
8803;SDS011;4438;50.890;4.726;2022-10-16T00:20:33;1.90;;;1.50;;
8803;SDS011;4438;50.890;4.726;2022-10-16T00:22:59;1.93;;;1.67;;
8803;SDS011;4438;50.890;4.726;2022-10-16T00:25:25;3.30;;;1.97;;
8803;SDS011;4438;50.890;4.726;2022-10-16T00:27:51;2.57;;;1.50;;
8803;SDS011;4438;50.890;4.726;2022-10-16T00:30:17;1.90;;;1.43;;
8803;SDS011;4438;50.890;4.726;2022-10-16T00:32:43;2.23;;;1.80;;
8803;SDS011;4438;50.890;4.726;2022-10-16T00:35:09;1.73;;;1.63;;
8803;SDS011;4438;50.890;4.726;2022-10-16T00:37:35;2.47;;;1.70;;
8803;SDS011;4438;50.890;4.726;2022-10-16T00:40:02;2.10;;;1.57;;
8803;SDS011;4438;50.890;4.726;2022-10-16T00:42:28;2.47;;;1.80;;
8803;SDS011;4438;50.890;4.726;2022-10-16T00:44:55;1.70;;;1.47;;
8803;SDS011;4438;50.890;4.726;2022-10-16T00:49:51;1.93;;;1.60;;
8803;SDS011;4438;50.890;4.726;2022-10-16T00:52:19;1.60;;;1.47;;
8803;SDS011;4438;50.890;4.726;2022-10-16T00:54:45;2.53;;;1.70;;
8803;SDS011;4438;50.890;4.726;2022-10-16T00:57:12;3.07;;;1.70;;
8803;SDS011;4438;50.890;4.726;2022-10-16T00:59:39;1.60;;;1.50;;
8803;SDS011;4438;50.890;4.726;2022-10-16T01:02:06;2.50;;;1.53;;
8803;SDS011;4438;50.890;4.726;2022-10-16T01:04:37;3.33;;;1.83;;
8803;SDS011;4438;50.890;4.726;2022-10-16T01:07:19;2.17;;;1.57;;
8803;SDS011;4438;50.890;4.726;2022-10-16T01:14:54;2.00;;;1.60;;
8803;SDS011;4438;50.890;4.726;2022-10-16T01:17:25;2.40;;;1.50;;
8803;SDS011;4438;50.890;4.726;2022-10-16T01:20:07;2.03;;;1.70;;
8803;SDS011;4438;50.890;4.726;2022-10-16T01:22:58;2.50;;;1.60;;
8803;SDS011;4438;50.890;4.726;2022-10-16T01:25:29;2.93;;;1.83;;
8803;SDS011;4438;50.890;4.726;2022-10-16T01:27:57;1.67;;;1.57;;
8803;SDS011;4438;50.890;4.726;2022-10-16T01:30:26;1.83;;;1.50;;
8803;SDS011;4438;50.890;4.726;2022-10-16T01:32:57;2.43;;;1.43;;
8803;SDS011;4438;50.890;4.726;2022-10-16T01:35:27;2.60;;;1.63;;
8803;SDS011;4438;50.890;4.726;2022-10-16T01:38:03;3.27;;;1.40;;
8803;SDS011;4438;50.890;4.726;2022-10-16T01:40:30;2.20;;;1.60;;
8803;SDS011;4438;50.890;4.726;2022-10-16T01:42:59;2.00;;;1.60;;
8803;SDS011;4438;50.890;4.726;2022-10-16T01:45:26;2.40;;;1.87;;
8803;SDS011;4438;50.890;4.726;2022-10-16T01:47:54;2.43;;;1.47;;
8803;SDS011;4438;50.890;4.726;2022-10-16T01:50:20;1.50;;;1.37;;
8803;SDS011;4438;50.890;4.726;2022-10-16T01:52:48;2.10;;;1.63;;
8803;SDS011;4438;50.890;4.726;2022-10-16T01:55:17;1.87;;;1.40;;
8803;SDS011;4438;50.890;4.726;2022-10-16T01:57:46;1.50;;;1.40;;
8803;SDS011;4438;50.890;4.726;2022-10-16T02:00:14;1.83;;;1.70;;
8803;SDS011;4438;50.890;4.726;2022-10-16T02:02:43;1.83;;;1.63;;
8803;SDS011;4438;50.890;4.726;2022-10-16T02:05:14;3.77;;;1.63;;
8803;SDS011;4438;50.890;4.726;2022-10-16T02:07:41;2.83;;;1.90;;
8803;SDS011;4438;50.890;4.726;2022-10-16T02:10:08;2.87;;;1.73;;
8803;SDS011;4438;50.890;4.726;2022-10-16T02:12:36;1.67;;;1.57;;
8803;SDS011;4438;50.890;4.726;2022-10-16T02:15:04;2.20;;;1.77;;
8803;SDS011;4438;50.890;4.726;2022-10-16T02:17:31;3.83;;;1.90;;
8803;SDS011;4438;50.890;4.726;2022-10-16T02:19:58;2.10;;;1.70;;
8803;SDS011;4438;50.890;4.726;2022-10-16T02:22:30;2.87;;;1.87;;
8803;SDS011;4438;50.890;4.726;2022-10-16T02:24:59;3.23;;;1.57;;
8803;SDS011;4438;50.890;4.726;2022-10-16T02:32:32;1.77;;;1.67;;
8803;SDS011;4438;50.890;4.726;2022-10-16T02:34:59;2.93;;;1.90;;
8803;SDS011;4438;50.890;4.726;2022-10-16T02:37:25;2.07;;;1.63;;
8803;SDS011;4438;50.890;4.726;2022-10-16T02:39:53;1.70;;;1.60;;
8803;SDS011;4438;50.890;4.726;2022-10-16T02:42:19;2.30;;;2.00;;
8803;SDS011;4438;50.890;4.726;2022-10-16T02:44:45;2.73;;;1.80;;
8803;SDS011;4438;50.890;4.726;2022-10-16T02:47:11;3.40;;;1.57;;
8803;SDS011;4438;50.890;4.726;2022-10-16T02:49:37;2.37;;;1.90;;
8803;SDS011;4438;50.890;4.726;2022-10-16T02:52:03;2.73;;;2.00;;
8803;SDS011;4438;50.890;4.726;2022-10-16T02:54:29;3.67;;;1.97;;
8803;SDS011;4438;50.890;4.726;2022-10-16T02:56:56;2.63;;;2.00;;
8803;SDS011;4438;50.890;4.726;2022-10-16T02:59:22;2.07;;;1.67;;
8803;SDS011;4438;50.890;4.726;2022-10-16T03:01:48;1.70;;;1.60;;
8803;SDS011;4438;50.890;4.726;2022-10-16T03:04:14;2.33;;;1.70;;
8803;SDS011;4438;50.890;4.726;2022-10-16T03:06:40;2.27;;;1.73;;
8803;SDS011;4438;50.890;4.726;2022-10-16T03:09:06;2.50;;;1.80;;
8803;SDS011;4438;50.890;4.726;2022-10-16T03:11:33;2.50;;;1.70;;
8803;SDS011;4438;50.890;4.726;2022-10-16T03:13:59;2.90;;;1.80;;
8803;SDS011;4438;50.890;4.726;2022-10-16T03:16:25;3.40;;;2.00;;
8803;SDS011;4438;50.890;4.726;2022-10-16T03:18:51;3.10;;;2.20;;
8803;SDS011;4438;50.890;4.726;2022-10-16T03:21:17;2.37;;;1.70;;
8803;SDS011;4438;50.890;4.726;2022-10-16T03:23:43;2.83;;;1.80;;
8803;SDS011;4438;50.890;4.726;2022-10-16T03:26:09;3.43;;;2.30;;
8803;SDS011;4438;50.890;4.726;2022-10-16T03:28:35;2.00;;;1.80;;
8803;SDS011;4438;50.890;4.726;2022-10-16T03:31:01;2.13;;;1.70;;
8803;SDS011;4438;50.890;4.726;2022-10-16T03:33:27;3.07;;;1.90;;
8803;SDS011;4438;50.890;4.726;2022-10-16T03:35:54;2.40;;;1.90;;
8803;SDS011;4438;50.890;4.726;2022-10-16T03:38:21;2.20;;;1.97;;
8803;SDS011;4438;50.890;4.726;2022-10-16T03:40:47;2.70;;;2.00;;
8803;SDS011;4438;50.890;4.726;2022-10-16T03:43:13;1.90;;;1.80;;
8803;SDS011;4438;50.890;4.726;2022-10-16T03:45:39;1.90;;;1.80;;
8803;SDS011;4438;50.890;4.726;2022-10-16T03:48:06;2.00;;;1.80;;
8803;SDS011;4438;50.890;4.726;2022-10-16T03:50:32;2.53;;;1.83;;
8803;SDS011;4438;50.890;4.726;2022-10-16T03:52:58;2.13;;;1.93;;
8803;SDS011;4438;50.890;4.726;2022-10-16T03:55:24;2.67;;;1.87;;
8803;SDS011;4438;50.890;4.726;2022-10-16T03:57:50;2.97;;;2.47;;
8803;SDS011;4438;50.890;4.726;2022-10-16T04:00:16;2.23;;;2.03;;
8803;SDS011;4438;50.890;4.726;2022-10-16T04:02:42;2.30;;;2.10;;
8803;SDS011;4438;50.890;4.726;2022-10-16T04:05:08;2.60;;;1.93;;
8803;SDS011;4438;50.890;4.726;2022-10-16T04:07:34;2.60;;;2.17;;
8803;SDS011;4438;50.890;4.726;2022-10-16T04:10:01;3.97;;;2.00;;
8803;SDS011;4438;50.890;4.726;2022-10-16T04:12:27;2.17;;;1.90;;
8803;SDS011;4438;50.890;4.726;2022-10-16T04:14:53;2.23;;;2.00;;
8803;SDS011;4438;50.890;4.726;2022-10-16T04:17:19;2.93;;;1.77;;
8803;SDS011;4438;50.890;4.726;2022-10-16T04:19:46;2.20;;;1.83;;
8803;SDS011;4438;50.890;4.726;2022-10-16T04:22:12;3.50;;;2.10;;
8803;SDS011;4438;50.890;4.726;2022-10-16T04:24:38;3.53;;;2.13;;
8803;SDS011;4438;50.890;4.726;2022-10-16T04:27:04;3.63;;;2.27;;
8803;SDS011;4438;50.890;4.726;2022-10-16T04:29:30;2.00;;;1.80;;
8803;SDS011;4438;50.890;4.726;2022-10-16T04:31:56;2.47;;;2.10;;
8803;SDS011;4438;50.890;4.726;2022-10-16T04:34:22;2.37;;;1.93;;
8803;SDS011;4438;50.890;4.726;2022-10-16T04:36:48;5.00;;;2.10;;
8803;SDS011;4438;50.890;4.726;2022-10-16T04:39:15;2.70;;;2.03;;
8803;SDS011;4438;50.890;4.726;2022-10-16T04:41:41;2.77;;;2.00;;
8803;SDS011;4438;50.890;4.726;2022-10-16T04:44:07;3.23;;;2.30;;
8803;SDS011;4438;50.890;4.726;2022-10-16T04:46:34;2.60;;;2.27;;
8803;SDS011;4438;50.890;4.726;2022-10-16T04:49:00;4.23;;;2.67;;
8803;SDS011;4438;50.890;4.726;2022-10-16T04:51:26;2.53;;;2.30;;
8803;SDS011;4438;50.890;4.726;2022-10-16T04:53:53;3.03;;;2.27;;
8803;SDS011;4438;50.890;4.726;2022-10-16T04:56:20;2.73;;;2.50;;
8803;SDS011;4438;50.890;4.726;2022-10-16T04:58:46;2.93;;;2.23;;
8803;SDS011;4438;50.890;4.726;2022-10-16T05:01:13;3.83;;;2.37;;
8803;SDS011;4438;50.890;4.726;2022-10-16T05:03:39;5.37;;;2.70;;
8803;SDS011;4438;50.890;4.726;2022-10-16T05:06:06;3.30;;;2.30;;
8803;SDS011;4438;50.890;4.726;2022-10-16T05:08:32;4.33;;;2.60;;
8803;SDS011;4438;50.890;4.726;2022-10-16T05:10:58;2.80;;;2.20;;
8803;SDS011;4438;50.890;4.726;2022-10-16T05:13:25;2.87;;;2.37;;
8803;SDS011;4438;50.890;4.726;2022-10-16T05:15:51;3.03;;;2.20;;
8803;SDS011;4438;50.890;4.726;2022-10-16T05:18:17;2.97;;;2.57;;
8803;SDS011;4438;50.890;4.726;2022-10-16T05:20:43;4.90;;;2.60;;
8803;SDS011;4438;50.890;4.726;2022-10-16T05:23:09;2.87;;;2.50;;
8803;SDS011;4438;50.890;4.726;2022-10-16T05:25:36;2.90;;;2.70;;
8803;SDS011;4438;50.890;4.726;2022-10-16T05:28:03;2.97;;;2.57;;
8803;SDS011;4438;50.890;4.726;2022-10-16T05:30:29;2.87;;;2.60;;
8803;SDS011;4438;50.890;4.726;2022-10-16T05:32:55;6.00;;;3.30;;
8803;SDS011;4438;50.890;4.726;2022-10-16T05:35:21;3.73;;;2.80;;
8803;SDS011;4438;50.890;4.726;2022-10-16T05:37:48;5.00;;;2.67;;
8803;SDS011;4438;50.890;4.726;2022-10-16T05:40:14;5.50;;;2.97;;
8803;SDS011;4438;50.890;4.726;2022-10-16T05:42:41;2.77;;;2.50;;
8803;SDS011;4438;50.890;4.726;2022-10-16T05:45:08;4.30;;;2.70;;
8803;SDS011;4438;50.890;4.726;2022-10-16T05:47:35;3.60;;;2.60;;
8803;SDS011;4438;50.890;4.726;2022-10-16T05:50:01;3.40;;;2.67;;
8803;SDS011;4438;50.890;4.726;2022-10-16T05:52:29;4.60;;;3.10;;
8803;SDS011;4438;50.890;4.726;2022-10-16T05:54:55;2.67;;;2.47;;
8803;SDS011;4438;50.890;4.726;2022-10-16T05:57:21;2.77;;;2.37;;
8803;SDS011;4438;50.890;4.726;2022-10-16T05:59:47;3.43;;;2.70;;
8803;SDS011;4438;50.890;4.726;2022-10-16T06:02:13;3.83;;;2.47;;
8803;SDS011;4438;50.890;4.726;2022-10-16T06:04:39;4.10;;;2.70;;
8803;SDS011;4438;50.890;4.726;2022-10-16T06:07:06;4.37;;;3.00;;
8803;SDS011;4438;50.890;4.726;2022-10-16T06:09:32;2.80;;;2.60;;
8803;SDS011;4438;50.890;4.726;2022-10-16T06:11:58;3.97;;;2.83;;
8803;SDS011;4438;50.890;4.726;2022-10-16T06:14:24;3.57;;;2.70;;
8803;SDS011;4438;50.890;4.726;2022-10-16T06:16:50;3.13;;;2.67;;
8803;SDS011;4438;50.890;4.726;2022-10-16T06:19:16;5.33;;;2.90;;
8803;SDS011;4438;50.890;4.726;2022-10-16T06:21:43;3.53;;;2.80;;
8803;SDS011;4438;50.890;4.726;2022-10-16T06:24:09;3.17;;;2.87;;
8803;SDS011;4438;50.890;4.726;2022-10-16T06:26:36;4.43;;;3.00;;
8803;SDS011;4438;50.890;4.726;2022-10-16T06:29:03;3.90;;;2.93;;
8803;SDS011;4438;50.890;4.726;2022-10-16T06:31:29;3.20;;;2.90;;
8803;SDS011;4438;50.890;4.726;2022-10-16T06:33:58;2.93;;;2.63;;
8803;SDS011;4438;50.890;4.726;2022-10-16T06:36:24;2.50;;;2.30;;
8803;SDS011;4438;50.890;4.726;2022-10-16T06:38:50;3.80;;;2.90;;
8803;SDS011;4438;50.890;4.726;2022-10-16T06:41:17;3.00;;;2.70;;
8803;SDS011;4438;50.890;4.726;2022-10-16T06:43:44;4.40;;;3.00;;
8803;SDS011;4438;50.890;4.726;2022-10-16T06:46:11;6.27;;;2.97;;
8803;SDS011;4438;50.890;4.726;2022-10-16T06:48:38;3.33;;;2.80;;
8803;SDS011;4438;50.890;4.726;2022-10-16T06:53:37;3.73;;;3.23;;
8803;SDS011;4438;50.890;4.726;2022-10-16T06:56:10;5.90;;;3.20;;
8803;SDS011;4438;50.890;4.726;2022-10-16T06:58:36;3.33;;;3.03;;
8803;SDS011;4438;50.890;4.726;2022-10-16T07:01:03;3.50;;;3.07;;
8803;SDS011;4438;50.890;4.726;2022-10-16T07:03:29;3.40;;;3.10;;
8803;SDS011;4438;50.890;4.726;2022-10-16T07:05:55;5.60;;;3.10;;
8803;SDS011;4438;50.890;4.726;2022-10-16T07:08:22;3.67;;;3.10;;
8803;SDS011;4438;50.890;4.726;2022-10-16T07:10:48;3.90;;;3.00;;
8803;SDS011;4438;50.890;4.726;2022-10-16T07:13:14;5.07;;;3.47;;
8803;SDS011;4438;50.890;4.726;2022-10-16T07:15:40;4.73;;;3.17;;
8803;SDS011;4438;50.890;4.726;2022-10-16T07:18:07;3.67;;;3.23;;
8803;SDS011;4438;50.890;4.726;2022-10-16T07:20:33;4.67;;;3.00;;
8803;SDS011;4438;50.890;4.726;2022-10-16T07:22:59;5.13;;;3.10;;
8803;SDS011;4438;50.890;4.726;2022-10-16T07:25:25;4.77;;;3.13;;
8803;SDS011;4438;50.890;4.726;2022-10-16T07:27:51;6.37;;;3.00;;
8803;SDS011;4438;50.890;4.726;2022-10-16T07:30:20;4.33;;;2.90;;
8803;SDS011;4438;50.890;4.726;2022-10-16T07:32:46;3.47;;;3.10;;
8803;SDS011;4438;50.890;4.726;2022-10-16T07:35:12;3.73;;;3.40;;
8803;SDS011;4438;50.890;4.726;2022-10-16T07:37:38;4.17;;;3.10;;
8803;SDS011;4438;50.890;4.726;2022-10-16T07:40:04;3.73;;;3.00;;
8803;SDS011;4438;50.890;4.726;2022-10-16T07:42:30;3.43;;;2.90;;
8803;SDS011;4438;50.890;4.726;2022-10-16T07:44:57;3.27;;;2.80;;
8803;SDS011;4438;50.890;4.726;2022-10-16T07:47:23;5.23;;;3.20;;
8803;SDS011;4438;50.890;4.726;2022-10-16T07:49:49;3.60;;;2.73;;
8803;SDS011;4438;50.890;4.726;2022-10-16T07:52:15;3.60;;;3.00;;
8803;SDS011;4438;50.890;4.726;2022-10-16T07:54:41;4.27;;;3.37;;
8803;SDS011;4438;50.890;4.726;2022-10-16T07:57:07;5.30;;;2.97;;
8803;SDS011;4438;50.890;4.726;2022-10-16T07:59:33;3.20;;;2.90;;
8803;SDS011;4438;50.890;4.726;2022-10-16T08:01:59;4.37;;;2.80;;
8803;SDS011;4438;50.890;4.726;2022-10-16T08:04:25;4.93;;;3.23;;
8803;SDS011;4438;50.890;4.726;2022-10-16T08:06:51;4.20;;;3.33;;
8803;SDS011;4438;50.890;4.726;2022-10-16T08:09:19;4.10;;;2.80;;
8803;SDS011;4438;50.890;4.726;2022-10-16T08:11:45;3.73;;;3.43;;
8803;SDS011;4438;50.890;4.726;2022-10-16T08:14:11;4.27;;;2.70;;
8803;SDS011;4438;50.890;4.726;2022-10-16T08:16:37;3.43;;;2.60;;
8803;SDS011;4438;50.890;4.726;2022-10-16T08:19:03;4.33;;;2.70;;
8803;SDS011;4438;50.890;4.726;2022-10-16T08:21:29;3.83;;;2.60;;
8803;SDS011;4438;50.890;4.726;2022-10-16T08:23:55;3.50;;;2.53;;
8803;SDS011;4438;50.890;4.726;2022-10-16T08:26:22;3.43;;;2.60;;
8803;SDS011;4438;50.890;4.726;2022-10-16T08:28:49;2.83;;;2.60;;
8803;SDS011;4438;50.890;4.726;2022-10-16T08:31:16;4.27;;;2.40;;
8803;SDS011;4438;50.890;4.726;2022-10-16T08:33:44;3.77;;;2.87;;
8803;SDS011;4438;50.890;4.726;2022-10-16T08:36:11;2.90;;;2.60;;
8803;SDS011;4438;50.890;4.726;2022-10-16T08:38:38;4.07;;;2.83;;
8803;SDS011;4438;50.890;4.726;2022-10-16T08:41:27;2.77;;;2.47;;
8803;SDS011;4438;50.890;4.726;2022-10-16T08:46:34;3.43;;;2.57;;
8803;SDS011;4438;50.890;4.726;2022-10-16T08:49:03;4.90;;;2.50;;
8803;SDS011;4438;50.890;4.726;2022-10-16T08:51:30;3.07;;;2.33;;
8803;SDS011;4438;50.890;4.726;2022-10-16T08:54:12;2.97;;;2.27;;
8803;SDS011;4438;50.890;4.726;2022-10-16T08:56:41;2.77;;;2.20;;
8803;SDS011;4438;50.890;4.726;2022-10-16T08:59:09;3.13;;;2.20;;
8803;SDS011;4438;50.890;4.726;2022-10-16T09:01:40;3.40;;;2.10;;
8803;SDS011;4438;50.890;4.726;2022-10-16T09:06:59;4.27;;;2.50;;
8803;SDS011;4438;50.890;4.726;2022-10-16T09:12:12;7.60;;;2.20;;
8803;SDS011;4438;50.890;4.726;2022-10-16T09:19:51;3.27;;;1.70;;
8803;SDS011;4438;50.890;4.726;2022-10-16T09:22:18;2.90;;;1.73;;
8803;SDS011;4438;50.890;4.726;2022-10-16T09:24:46;3.20;;;2.13;;
8803;SDS011;4438;50.890;4.726;2022-10-16T09:27:13;2.27;;;1.67;;
8803;SDS011;4438;50.890;4.726;2022-10-16T09:29:40;2.27;;;1.80;;
8803;SDS011;4438;50.890;4.726;2022-10-16T09:32:17;2.90;;;1.73;;
8803;SDS011;4438;50.890;4.726;2022-10-16T09:34:45;3.47;;;1.80;;
8803;SDS011;4438;50.890;4.726;2022-10-16T09:37:13;4.43;;;1.80;;
8803;SDS011;4438;50.890;4.726;2022-10-16T09:39:47;5.30;;;1.90;;
8803;SDS011;4438;50.890;4.726;2022-10-16T09:42:24;4.27;;;2.07;;
8803;SDS011;4438;50.890;4.726;2022-10-16T09:44:53;3.23;;;1.90;;
8803;SDS011;4438;50.890;4.726;2022-10-16T09:47:20;5.20;;;2.07;;
8803;SDS011;4438;50.890;4.726;2022-10-16T09:49:51;3.50;;;1.90;;
8803;SDS011;4438;50.890;4.726;2022-10-16T09:52:18;1.80;;;1.50;;
8803;SDS011;4438;50.890;4.726;2022-10-16T09:57:16;2.50;;;1.60;;
8803;SDS011;4438;50.890;4.726;2022-10-16T09:59:47;2.93;;;1.63;;
8803;SDS011;4438;50.890;4.726;2022-10-16T10:02:14;3.20;;;1.50;;
8803;SDS011;4438;50.890;4.726;2022-10-16T10:04:41;2.10;;;1.40;;
8803;SDS011;4438;50.890;4.726;2022-10-16T10:07:26;2.10;;;1.60;;
8803;SDS011;4438;50.890;4.726;2022-10-16T10:09:53;1.83;;;1.33;;
8803;SDS011;4438;50.890;4.726;2022-10-16T10:12:24;3.73;;;1.70;;
8803;SDS011;4438;50.890;4.726;2022-10-16T10:14:57;2.70;;;1.83;;
8803;SDS011;4438;50.890;4.726;2022-10-16T10:17:25;2.67;;;1.60;;
8803;SDS011;4438;50.890;4.726;2022-10-16T10:19:52;2.10;;;1.40;;
8803;SDS011;4438;50.890;4.726;2022-10-16T10:27:21;3.83;;;1.80;;
8803;SDS011;4438;50.890;4.726;2022-10-16T10:30:33;3.60;;;1.90;;
8803;SDS011;4438;50.890;4.726;2022-10-16T10:32:55;3.27;;;1.63;;
8803;SDS011;4438;50.890;4.726;2022-10-16T10:35:28;3.83;;;1.80;;
8803;SDS011;4438;50.890;4.726;2022-10-16T10:40:56;3.97;;;1.60;;
8803;SDS011;4438;50.890;4.726;2022-10-16T10:45:58;1.53;;;1.40;;
8803;SDS011;4438;50.890;4.726;2022-10-16T10:53:50;3.07;;;1.40;;
8803;SDS011;4438;50.890;4.726;2022-10-16T11:01:52;2.93;;;1.40;;
8803;SDS011;4438;50.890;4.726;2022-10-16T11:07:13;2.17;;;1.50;;
8803;SDS011;4438;50.890;4.726;2022-10-16T11:09:43;3.17;;;1.47;;
8803;SDS011;4438;50.890;4.726;2022-10-16T11:12:21;1.67;;;1.20;;
8803;SDS011;4438;50.890;4.726;2022-10-16T11:14:50;2.47;;;1.37;;
8803;SDS011;4438;50.890;4.726;2022-10-16T11:17:35;2.00;;;1.40;;
8803;SDS011;4438;50.890;4.726;2022-10-16T11:22:32;2.57;;;1.33;;
8803;SDS011;4438;50.890;4.726;2022-10-16T11:35:12;2.20;;;1.17;;
8803;SDS011;4438;50.890;4.726;2022-10-16T11:37:41;2.07;;;1.40;;
8803;SDS011;4438;50.890;4.726;2022-10-16T11:40:19;1.93;;;1.23;;
8803;SDS011;4438;50.890;4.726;2022-10-16T11:42:56;1.87;;;1.20;;
8803;SDS011;4438;50.890;4.726;2022-10-16T11:45:32;3.33;;;1.70;;
8803;SDS011;4438;50.890;4.726;2022-10-16T11:48:01;3.30;;;2.10;;
8803;SDS011;4438;50.890;4.726;2022-10-16T11:56:04;4.37;;;1.60;;
8803;SDS011;4438;50.890;4.726;2022-10-16T12:01:43;2.10;;;1.40;;
8803;SDS011;4438;50.890;4.726;2022-10-16T12:06:43;4.13;;;1.70;;
8803;SDS011;4438;50.890;4.726;2022-10-16T12:09:15;3.20;;;1.50;;
8803;SDS011;4438;50.890;4.726;2022-10-16T12:11:43;4.57;;;1.70;;
8803;SDS011;4438;50.890;4.726;2022-10-16T12:16:57;3.00;;;1.70;;
8803;SDS011;4438;50.890;4.726;2022-10-16T12:19:25;4.00;;;1.40;;
8803;SDS011;4438;50.890;4.726;2022-10-16T12:21:52;2.33;;;1.30;;
8803;SDS011;4438;50.890;4.726;2022-10-16T12:26:58;1.77;;;1.23;;
8803;SDS011;4438;50.890;4.726;2022-10-16T12:29:43;2.47;;;1.40;;
8803;SDS011;4438;50.890;4.726;2022-10-16T12:35:05;4.37;;;1.60;;
8803;SDS011;4438;50.890;4.726;2022-10-16T12:37:36;3.57;;;1.50;;
8803;SDS011;4438;50.890;4.726;2022-10-16T12:40:14;2.13;;;1.30;;
8803;SDS011;4438;50.890;4.726;2022-10-16T12:42:40;3.47;;;1.30;;
8803;SDS011;4438;50.890;4.726;2022-10-16T12:45:26;3.23;;;1.40;;
8803;SDS011;4438;50.890;4.726;2022-10-16T12:47:54;17.37;;;2.60;;
8803;SDS011;4438;50.890;4.726;2022-10-16T12:50:28;5.83;;;1.97;;
8803;SDS011;4438;50.890;4.726;2022-10-16T12:52:58;15.97;;;2.43;;
8803;SDS011;4438;50.890;4.726;2022-10-16T12:55:25;3.87;;;1.53;;
8803;SDS011;4438;50.890;4.726;2022-10-16T13:00:26;4.43;;;1.50;;
8803;SDS011;4438;50.890;4.726;2022-10-16T13:13:22;2.17;;;1.40;;
8803;SDS011;4438;50.890;4.726;2022-10-16T13:26:15;2.40;;;1.50;;
8803;SDS011;4438;50.890;4.726;2022-10-16T13:28:42;1.93;;;1.20;;
8803;SDS011;4438;50.890;4.726;2022-10-16T13:31:12;3.10;;;1.53;;
8803;SDS011;4438;50.890;4.726;2022-10-16T13:33:41;1.93;;;1.60;;
8803;SDS011;4438;50.890;4.726;2022-10-16T13:36:22;3.53;;;1.70;;
8803;SDS011;4438;50.890;4.726;2022-10-16T13:38:48;4.13;;;1.77;;
8803;SDS011;4438;50.890;4.726;2022-10-16T13:41:25;2.63;;;1.47;;
8803;SDS011;4438;50.890;4.726;2022-10-16T13:43:51;4.00;;;1.80;;
8803;SDS011;4438;50.890;4.726;2022-10-16T13:46:19;5.73;;;2.10;;
8803;SDS011;4438;50.890;4.726;2022-10-16T13:48:56;3.67;;;1.80;;
8803;SDS011;4438;50.890;4.726;2022-10-16T13:51:22;3.73;;;1.77;;
8803;SDS011;4438;50.890;4.726;2022-10-16T13:53:48;4.13;;;1.80;;
8803;SDS011;4438;50.890;4.726;2022-10-16T13:56:16;3.53;;;1.80;;
8803;SDS011;4438;50.890;4.726;2022-10-16T13:58:42;3.37;;;2.00;;
8803;SDS011;4438;50.890;4.726;2022-10-16T14:01:19;2.20;;;1.97;;
8803;SDS011;4438;50.890;4.726;2022-10-16T14:03:46;3.00;;;1.90;;
8803;SDS011;4438;50.890;4.726;2022-10-16T14:06:14;2.97;;;1.70;;
8803;SDS011;4438;50.890;4.726;2022-10-16T14:09:04;3.70;;;2.30;;
8803;SDS011;4438;50.890;4.726;2022-10-16T14:11:27;3.40;;;1.77;;
8803;SDS011;4438;50.890;4.726;2022-10-16T14:13:54;1.93;;;1.60;;
8803;SDS011;4438;50.890;4.726;2022-10-16T14:16:30;2.97;;;1.60;;
8803;SDS011;4438;50.890;4.726;2022-10-16T14:18:58;2.53;;;1.80;;
8803;SDS011;4438;50.890;4.726;2022-10-16T14:21:25;3.27;;;1.60;;
8803;SDS011;4438;50.890;4.726;2022-10-16T14:23:52;2.63;;;1.40;;
8803;SDS011;4438;50.890;4.726;2022-10-16T14:26:20;2.03;;;1.50;;
8803;SDS011;4438;50.890;4.726;2022-10-16T14:28:47;2.10;;;1.50;;
8803;SDS011;4438;50.890;4.726;2022-10-16T14:33:45;3.27;;;2.20;;
8803;SDS011;4438;50.890;4.726;2022-10-16T14:36:12;2.37;;;1.43;;
8803;SDS011;4438;50.890;4.726;2022-10-16T14:38:40;2.90;;;1.50;;
8803;SDS011;4438;50.890;4.726;2022-10-16T14:41:06;3.03;;;1.80;;
8803;SDS011;4438;50.890;4.726;2022-10-16T14:43:36;2.90;;;1.60;;
8803;SDS011;4438;50.890;4.726;2022-10-16T14:46:03;4.03;;;1.63;;
8803;SDS011;4438;50.890;4.726;2022-10-16T14:48:32;2.13;;;1.53;;
8803;SDS011;4438;50.890;4.726;2022-10-16T14:50:58;3.20;;;1.70;;
8803;SDS011;4438;50.890;4.726;2022-10-16T14:53:24;2.00;;;1.50;;
8803;SDS011;4438;50.890;4.726;2022-10-16T14:55:50;2.83;;;1.43;;
8803;SDS011;4438;50.890;4.726;2022-10-16T14:58:20;4.10;;;1.50;;
8803;SDS011;4438;50.890;4.726;2022-10-16T15:00:47;2.10;;;1.50;;
8803;SDS011;4438;50.890;4.726;2022-10-16T15:03:14;5.13;;;1.70;;
8803;SDS011;4438;50.890;4.726;2022-10-16T15:05:40;3.63;;;1.50;;
8803;SDS011;4438;50.890;4.726;2022-10-16T15:08:06;3.77;;;1.60;;
8803;SDS011;4438;50.890;4.726;2022-10-16T15:10:33;6.83;;;1.90;;
8803;SDS011;4438;50.890;4.726;2022-10-16T15:13:01;11.50;;;2.60;;
8803;SDS011;4438;50.890;4.726;2022-10-16T15:17:56;4.70;;;2.20;;
8803;SDS011;4438;50.890;4.726;2022-10-16T15:20:26;4.13;;;1.70;;
8803;SDS011;4438;50.890;4.726;2022-10-16T15:22:52;2.57;;;1.70;;
8803;SDS011;4438;50.890;4.726;2022-10-16T15:25:35;3.53;;;1.80;;
8803;SDS011;4438;50.890;4.726;2022-10-16T15:28:02;2.67;;;1.77;;
8803;SDS011;4438;50.890;4.726;2022-10-16T15:30:29;3.63;;;1.50;;
8803;SDS011;4438;50.890;4.726;2022-10-16T15:32:55;2.23;;;1.50;;
8803;SDS011;4438;50.890;4.726;2022-10-16T15:35:21;2.37;;;1.63;;
8803;SDS011;4438;50.890;4.726;2022-10-16T15:37:47;2.47;;;1.43;;
8803;SDS011;4438;50.890;4.726;2022-10-16T15:40:14;3.03;;;1.70;;
8803;SDS011;4438;50.890;4.726;2022-10-16T15:42:40;2.53;;;1.80;;
8803;SDS011;4438;50.890;4.726;2022-10-16T15:45:06;3.80;;;2.30;;
8803;SDS011;4438;50.890;4.726;2022-10-16T15:47:34;3.00;;;2.23;;
8803;SDS011;4438;50.890;4.726;2022-10-16T15:50:00;2.57;;;2.20;;
8803;SDS011;4438;50.890;4.726;2022-10-16T15:52:26;3.10;;;2.57;;
8803;SDS011;4438;50.890;4.726;2022-10-16T15:54:53;2.67;;;2.40;;
8803;SDS011;4438;50.890;4.726;2022-10-16T15:57:20;4.00;;;2.47;;
8803;SDS011;4438;50.890;4.726;2022-10-16T15:59:46;2.87;;;2.57;;
8803;SDS011;4438;50.890;4.726;2022-10-16T16:02:12;3.40;;;2.73;;
8803;SDS011;4438;50.890;4.726;2022-10-16T16:04:38;3.83;;;2.93;;
8803;SDS011;4438;50.890;4.726;2022-10-16T16:07:04;3.57;;;2.63;;
8803;SDS011;4438;50.890;4.726;2022-10-16T16:09:32;2.70;;;2.40;;
8803;SDS011;4438;50.890;4.726;2022-10-16T16:11:58;3.50;;;2.73;;
8803;SDS011;4438;50.890;4.726;2022-10-16T16:14:26;4.67;;;2.30;;
8803;SDS011;4438;50.890;4.726;2022-10-16T16:16:56;3.00;;;2.40;;
8803;SDS011;4438;50.890;4.726;2022-10-16T16:19:22;5.60;;;4.67;;
8803;SDS011;4438;50.890;4.726;2022-10-16T16:21:48;2.97;;;2.27;;
8803;SDS011;4438;50.890;4.726;2022-10-16T16:24:14;2.77;;;2.13;;
8803;SDS011;4438;50.890;4.726;2022-10-16T16:26:41;2.60;;;2.20;;
8803;SDS011;4438;50.890;4.726;2022-10-16T16:29:12;1.93;;;1.70;;
8803;SDS011;4438;50.890;4.726;2022-10-16T16:31:38;2.23;;;1.70;;
8803;SDS011;4438;50.890;4.726;2022-10-16T16:34:05;1.83;;;1.67;;
8803;SDS011;4438;50.890;4.726;2022-10-16T16:36:31;2.60;;;2.07;;
8803;SDS011;4438;50.890;4.726;2022-10-16T16:38:57;2.90;;;2.47;;
8803;SDS011;4438;50.890;4.726;2022-10-16T16:41:24;3.03;;;2.23;;
8803;SDS011;4438;50.890;4.726;2022-10-16T16:43:51;2.80;;;2.20;;
8803;SDS011;4438;50.890;4.726;2022-10-16T16:46:17;3.10;;;2.80;;
8803;SDS011;4438;50.890;4.726;2022-10-16T16:48:44;4.17;;;3.00;;
8803;SDS011;4438;50.890;4.726;2022-10-16T16:51:11;3.37;;;2.53;;
8803;SDS011;4438;50.890;4.726;2022-10-16T16:53:40;4.07;;;2.93;;
8803;SDS011;4438;50.890;4.726;2022-10-16T16:56:07;2.87;;;2.57;;
8803;SDS011;4438;50.890;4.726;2022-10-16T16:58:33;3.13;;;2.70;;
8803;SDS011;4438;50.890;4.726;2022-10-16T17:00:59;3.27;;;2.70;;
8803;SDS011;4438;50.890;4.726;2022-10-16T17:03:35;5.07;;;2.67;;
8803;SDS011;4438;50.890;4.726;2022-10-16T17:06:03;3.20;;;2.33;;
8803;SDS011;4438;50.890;4.726;2022-10-16T17:08:30;3.10;;;2.50;;
8803;SDS011;4438;50.890;4.726;2022-10-16T17:10:56;2.87;;;2.20;;
8803;SDS011;4438;50.890;4.726;2022-10-16T17:13:26;2.60;;;2.30;;
8803;SDS011;4438;50.890;4.726;2022-10-16T17:15:52;3.53;;;2.93;;